createdAt,value
2024-05-09T00:00:15.586Z,88.26
2024-05-09T00:00:50.277Z,87.96
2024-05-09T00:01:22.061Z,88.12
2024-05-09T00:01:53.798Z,88.29
2024-05-09T00:02:25.630Z,87.90
2024-05-09T00:02:57.439Z,87.96
2024-05-09T00:03:29.293Z,87.81
2024-05-09T00:04:01.103Z,87.87
2024-05-09T00:04:32.982Z,88.37
2024-05-09T00:05:05.123Z,88.24
2024-05-09T00:05:37.237Z,88.22
2024-05-09T00:06:09.889Z,87.76
2024-05-09T00:06:41.687Z,88.07
2024-05-09T00:07:13.371Z,88.25
2024-05-09T00:07:45.057Z,88.21
2024-05-09T00:08:16.861Z,88.10
2024-05-09T00:08:48.515Z,87.98
2024-05-09T00:09:20.210Z,88.00
2024-05-09T00:09:51.842Z,87.93
2024-05-09T00:10:32.632Z,87.79
2024-05-09T00:11:07.570Z,87.47
2024-05-09T00:11:39.918Z,87.23
2024-05-09T00:12:11.834Z,87.25
2024-05-09T00:12:44.752Z,86.97
2024-05-09T00:13:16.606Z,87.29
2024-05-09T00:13:48.364Z,87.06
2024-05-09T00:14:20.093Z,87.29
2024-05-09T00:14:52.389Z,86.76
2024-05-09T00:15:24.060Z,86.61
2024-05-09T00:15:55.686Z,86.37
2024-05-09T00:16:27.396Z,86.74
2024-05-09T00:16:59.102Z,87.00
2024-05-09T00:17:30.934Z,86.74
2024-05-09T00:18:03.288Z,86.79
2024-05-09T00:18:35.552Z,86.77
2024-05-09T00:19:07.482Z,87.05
2024-05-09T00:19:39.445Z,87.05
2024-05-09T00:20:17.703Z,87.22
2024-05-09T00:20:55.790Z,86.88
2024-05-09T00:21:28.795Z,86.65
2024-05-09T00:22:01.807Z,86.83
2024-05-09T00:22:33.518Z,86.59
2024-05-09T00:23:06.866Z,86.42
2024-05-09T00:23:39.217Z,86.71
2024-05-09T00:24:11.095Z,86.98
2024-05-09T00:24:42.892Z,87.36
2024-05-09T00:25:14.647Z,87.49
2024-05-09T00:25:46.305Z,87.50
2024-05-09T00:26:18.484Z,87.47
2024-05-09T00:26:50.193Z,87.42
2024-05-09T00:27:22.687Z,87.54
2024-05-09T00:27:54.275Z,87.72
2024-05-09T00:28:26.068Z,87.71
2024-05-09T00:28:57.751Z,87.70
2024-05-09T00:29:29.578Z,87.75
2024-05-09T00:30:01.347Z,88.02
2024-05-09T00:30:35.953Z,87.80
2024-05-09T00:31:10.220Z,87.85
2024-05-09T00:31:41.876Z,88.17
2024-05-09T00:32:13.751Z,88.18
2024-05-09T00:32:48.246Z,88.23
2024-05-09T00:33:20.258Z,88.44
2024-05-09T00:33:53.274Z,87.96
2024-05-09T00:34:24.997Z,88.06
2024-05-09T00:34:56.830Z,87.92
2024-05-09T00:35:28.812Z,88.23
2024-05-09T00:36:01.254Z,88.10
2024-05-09T00:36:32.980Z,88.25
2024-05-09T00:37:04.687Z,88.23
2024-05-09T00:37:36.467Z,88.46
2024-05-09T00:38:08.480Z,88.56
2024-05-09T00:38:40.205Z,88.36
2024-05-09T00:39:11.890Z,88.56
2024-05-09T00:39:43.585Z,88.87
2024-05-09T00:40:22.801Z,88.79
2024-05-09T00:41:02.639Z,88.77
2024-05-09T00:41:34.421Z,88.46
2024-05-09T00:42:06.115Z,88.38
2024-05-09T00:42:40.931Z,88.27
2024-05-09T00:43:14.368Z,88.31
2024-05-09T00:43:46.912Z,88.52
2024-05-09T00:44:18.716Z,88.16
2024-05-09T00:44:50.407Z,88.51
2024-05-09T00:45:22.104Z,88.57
2024-05-09T00:45:57.320Z,88.70
2024-05-09T00:46:29.449Z,88.52
2024-05-09T00:47:01.103Z,89.00
2024-05-09T00:47:36.690Z,88.71
2024-05-09T00:48:11.073Z,88.71
2024-05-09T00:48:44.362Z,89.04
2024-05-09T00:49:16.335Z,89.05
2024-05-09T00:49:48.751Z,89.16
2024-05-09T00:50:29.407Z,89.15
2024-05-09T00:51:06.742Z,88.91
2024-05-09T00:51:42.053Z,89.03
2024-05-09T00:52:13.755Z,89.03
2024-05-09T00:52:46.458Z,88.77
2024-05-09T00:53:18.995Z,88.32
2024-05-09T00:53:50.807Z,88.12
2024-05-09T00:54:23.658Z,88.10
2024-05-09T00:54:56.655Z,87.91
2024-05-09T00:55:28.611Z,87.78
2024-05-09T00:56:01.251Z,87.23
2024-05-09T00:56:35.140Z,87.71
2024-05-09T00:57:07.070Z,87.21
2024-05-09T00:57:39.812Z,87.33
2024-05-09T00:58:13.720Z,87.38
2024-05-09T00:58:45.771Z,87.36
2024-05-09T00:59:18.294Z,87.27
2024-05-09T00:59:50.447Z,87.09
2024-05-09T01:00:30.549Z,87.40
2024-05-09T01:01:07.900Z,87.30
2024-05-09T01:01:41.185Z,87.29
2024-05-09T01:02:13.221Z,87.55
2024-05-09T01:02:45.260Z,87.45
2024-05-09T01:03:18.006Z,87.33
2024-05-09T01:03:51.426Z,87.37
2024-05-09T01:04:23.345Z,87.40
2024-05-09T01:04:55.610Z,87.73
2024-05-09T01:05:27.663Z,87.75
2024-05-09T01:05:59.458Z,87.80
2024-05-09T01:06:31.280Z,87.54
2024-05-09T01:07:03.054Z,87.63
2024-05-09T01:07:34.840Z,87.93
2024-05-09T01:08:08.050Z,87.50
2024-05-09T01:08:39.997Z,87.86
2024-05-09T01:09:11.782Z,87.83
2024-05-09T01:09:43.489Z,87.62
2024-05-09T01:10:21.214Z,87.73
2024-05-09T01:10:59.532Z,87.41
2024-05-09T01:11:38.952Z,87.18
2024-05-09T01:12:10.904Z,87.22
2024-05-09T01:12:42.651Z,87.18
2024-05-09T01:13:14.361Z,87.02
2024-05-09T01:13:46.285Z,87.23
2024-05-09T01:14:18.163Z,87.24
2024-05-09T01:14:49.876Z,87.20
2024-05-09T01:15:21.614Z,87.22
2024-05-09T01:15:54.022Z,87.05
2024-05-09T01:16:25.788Z,86.82
2024-05-09T01:16:57.664Z,86.67
2024-05-09T01:17:29.575Z,86.92
2024-05-09T01:18:09.441Z,87.08
2024-05-09T01:18:42.280Z,86.53
2024-05-09T01:19:25.953Z,86.22
2024-05-09T01:19:57.883Z,86.28
2024-05-09T01:20:39.569Z,85.77
2024-05-09T01:21:14.573Z,86.53
2024-05-09T01:21:46.301Z,86.50
2024-05-09T01:22:18.549Z,86.41
2024-05-09T01:22:52.476Z,86.83
2024-05-09T01:23:24.224Z,87.06
2024-05-09T01:23:55.887Z,86.83
2024-05-09T01:24:27.617Z,87.20
2024-05-09T01:24:59.284Z,87.57
2024-05-09T01:25:32.875Z,87.11
2024-05-09T01:26:04.791Z,86.85
2024-05-09T01:26:36.594Z,86.79
2024-05-09T01:27:08.260Z,87.18
2024-05-09T01:27:40.062Z,87.06
2024-05-09T01:28:12.087Z,87.08
2024-05-09T01:28:43.786Z,86.96
2024-05-09T01:29:15.705Z,86.82
2024-05-09T01:29:47.399Z,86.84
2024-05-09T01:30:24.334Z,86.57
2024-05-09T01:30:59.637Z,86.32
2024-05-09T01:31:31.332Z,86.33
2024-05-09T01:32:36.218Z,86.36
2024-05-09T01:33:10.013Z,86.47
2024-05-09T01:35:43.310Z,86.22
2024-05-09T01:36:16.181Z,86.25
2024-05-09T01:36:47.918Z,86.28
2024-05-09T01:37:19.586Z,86.28
2024-05-09T01:37:51.342Z,86.43
2024-05-09T01:38:23.214Z,86.38
2024-05-09T01:38:54.945Z,86.44
2024-05-09T01:39:26.613Z,86.23
2024-05-09T01:39:58.474Z,86.38
2024-05-09T01:42:06.878Z,86.88
2024-05-09T01:42:38.553Z,86.91
2024-05-09T01:43:11.264Z,87.15
2024-05-09T01:43:43.819Z,87.08
2024-05-09T01:44:15.566Z,86.68
2024-05-09T01:44:47.238Z,86.95
2024-05-09T01:45:18.906Z,86.75
2024-05-09T01:45:50.576Z,87.20
2024-05-09T01:46:22.247Z,86.95
2024-05-09T01:46:53.947Z,86.91
2024-05-09T01:47:25.835Z,87.01
2024-05-09T01:47:57.939Z,86.77
2024-05-09T01:48:30.015Z,87.26
2024-05-09T01:49:01.839Z,87.02
2024-05-09T01:49:38.841Z,86.81
2024-05-09T01:50:11.096Z,87.24
2024-05-09T01:50:43.627Z,87.25
2024-05-09T01:51:15.527Z,87.32
2024-05-09T01:51:47.303Z,87.34
2024-05-09T01:52:18.996Z,87.18
2024-05-09T01:52:51.092Z,87.31
2024-05-09T01:53:22.921Z,86.98
2024-05-09T01:53:55.989Z,87.25
2024-05-09T01:54:27.786Z,87.37
2024-05-09T01:55:01.984Z,86.96
2024-05-09T01:55:35.022Z,86.86
2024-05-09T01:56:07.535Z,87.01
2024-05-09T01:56:39.118Z,86.82
2024-05-09T01:57:12.183Z,86.78
2024-05-09T01:57:43.824Z,86.96
2024-05-09T01:58:16.083Z,86.99
2024-05-09T01:58:47.835Z,86.98
2024-05-09T01:59:19.772Z,87.24
2024-05-09T01:59:51.467Z,86.94
2024-05-09T02:00:36.392Z,86.98
2024-05-09T02:01:11.985Z,87.00
2024-05-09T02:01:56.275Z,87.20
2024-05-09T02:02:29.590Z,86.95
2024-05-09T02:03:01.748Z,86.67
2024-05-09T02:03:34.002Z,86.69
2024-05-09T02:04:06.120Z,86.71
2024-05-09T02:04:38.315Z,87.00
2024-05-09T02:05:10.196Z,86.67
2024-05-09T02:05:42.762Z,86.71
2024-05-09T02:06:14.482Z,86.97
2024-05-09T02:06:46.154Z,87.06
2024-05-09T02:07:18.015Z,87.11
2024-05-09T02:07:49.817Z,86.79
2024-05-09T02:08:22.341Z,87.11
2024-05-09T02:08:54.105Z,86.83
2024-05-09T02:09:25.920Z,86.95
2024-05-09T02:09:57.645Z,86.91
2024-05-09T02:10:32.701Z,86.77
2024-05-09T02:11:05.265Z,86.99
2024-05-09T02:11:44.563Z,86.98
2024-05-09T02:12:16.531Z,87.05
2024-05-09T02:12:48.403Z,87.26
2024-05-09T02:13:20.151Z,87.26
2024-05-09T02:13:51.969Z,87.15
2024-05-09T02:14:24.069Z,87.03
2024-05-09T02:14:55.844Z,87.03
2024-05-09T02:15:27.775Z,87.12
2024-05-09T02:15:59.474Z,87.17
2024-05-09T02:16:31.131Z,86.94
2024-05-09T02:17:05.275Z,87.02
2024-05-09T02:17:37.289Z,87.15
2024-05-09T02:18:10.254Z,87.00
2024-05-09T02:18:42.478Z,87.17
2024-05-09T02:19:14.463Z,86.77
2024-05-09T02:19:46.201Z,86.65
2024-05-09T02:20:27.157Z,86.68
2024-05-09T02:21:05.265Z,86.88
2024-05-09T02:21:37.107Z,87.17
2024-05-09T02:22:08.791Z,87.19
2024-05-09T02:22:40.501Z,87.32
2024-05-09T02:23:12.619Z,87.15
2024-05-09T02:23:44.661Z,87.58
2024-05-09T02:24:16.363Z,87.80
2024-05-09T02:24:48.040Z,87.72
2024-05-09T02:25:22.131Z,87.70
2024-05-09T02:25:53.836Z,87.63
2024-05-09T02:26:25.627Z,87.43
2024-05-09T02:26:57.346Z,87.74
2024-05-09T02:27:29.015Z,87.60
2024-05-09T02:28:00.811Z,87.41
2024-05-09T02:28:32.551Z,87.55
2024-05-09T02:29:04.263Z,87.40
2024-05-09T02:29:36.011Z,87.53
2024-05-09T02:30:18.494Z,87.76
2024-05-09T02:30:57.658Z,87.40
2024-05-09T02:31:29.334Z,87.55
2024-05-09T02:32:01.121Z,87.44
2024-05-09T02:32:32.948Z,87.68
2024-05-09T02:33:05.270Z,87.54
2024-05-09T02:33:37.508Z,87.33
2024-05-09T02:34:09.475Z,87.82
2024-05-09T02:34:41.163Z,87.59
2024-05-09T02:35:13.183Z,87.73
2024-05-09T02:35:44.952Z,87.37
2024-05-09T02:36:17.184Z,87.34
2024-05-09T02:36:48.847Z,87.08
2024-05-09T02:37:20.563Z,87.01
2024-05-09T02:37:52.412Z,87.46
2024-05-09T02:38:24.525Z,87.71
2024-05-09T02:38:56.322Z,87.98
2024-05-09T02:39:27.994Z,87.80
2024-05-09T02:39:59.694Z,87.83
2024-05-09T02:40:37.520Z,88.30
2024-05-09T02:41:11.025Z,88.06
2024-05-09T02:41:42.823Z,88.01
2024-05-09T02:42:14.469Z,87.87
2024-05-09T02:42:46.125Z,87.81
2024-05-09T02:43:17.778Z,87.95
2024-05-09T02:43:49.512Z,88.20
2024-05-09T02:44:21.545Z,87.98
2024-05-09T02:44:53.221Z,88.05
2024-05-09T02:45:24.960Z,88.19
2024-05-09T02:45:57.760Z,87.85
2024-05-09T02:46:29.495Z,87.92
2024-05-09T02:47:01.251Z,87.99
2024-05-09T02:47:33.147Z,87.80
2024-05-09T02:48:05.706Z,88.10
2024-05-09T02:48:37.819Z,88.15
2024-05-09T02:49:09.727Z,88.05
2024-05-09T02:49:41.508Z,88.31
2024-05-09T02:50:16.224Z,88.24
2024-05-09T02:50:54.448Z,88.27
2024-05-09T02:51:26.124Z,88.42
2024-05-09T02:51:57.767Z,88.42
2024-05-09T02:52:29.497Z,88.40
2024-05-09T02:53:01.331Z,88.33
2024-05-09T02:53:33.146Z,88.20
2024-05-09T02:54:04.928Z,88.18
2024-05-09T02:54:36.613Z,88.07
2024-05-09T02:55:08.330Z,88.31
2024-05-09T02:55:41.342Z,88.33
2024-05-09T02:56:13.264Z,88.39
2024-05-09T02:56:45.045Z,88.19
2024-05-09T02:57:16.737Z,88.07
2024-05-09T02:57:48.432Z,88.27
2024-05-09T02:58:20.130Z,88.22
2024-05-09T02:58:51.819Z,88.15
2024-05-09T02:59:23.730Z,87.98
2024-05-09T02:59:55.570Z,88.07
2024-05-09T03:00:36.304Z,87.98
2024-05-09T03:01:11.336Z,88.47
2024-05-09T03:01:46.217Z,88.34
2024-05-09T03:02:18.083Z,88.24
2024-05-09T03:02:50.065Z,88.14
2024-05-09T03:03:22.226Z,88.14
2024-05-09T03:03:54.532Z,88.58
2024-05-09T03:04:26.475Z,88.28
2024-05-09T03:04:58.994Z,88.29
2024-05-09T03:05:30.704Z,88.28
2024-05-09T03:06:02.632Z,88.15
2024-05-09T03:06:34.377Z,88.32
2024-05-09T03:07:06.062Z,88.10
2024-05-09T03:07:38.894Z,88.25
2024-05-09T03:08:10.807Z,88.08
2024-05-09T03:08:46.927Z,87.83
2024-05-09T03:09:18.713Z,87.84
2024-05-09T03:09:50.403Z,88.11
2024-05-09T03:10:25.744Z,87.96
2024-05-09T03:11:00.495Z,87.67
2024-05-09T03:11:32.430Z,87.65
2024-05-09T03:12:04.656Z,87.76
2024-05-09T03:12:39.067Z,87.58
2024-05-09T03:13:14.541Z,87.68
2024-05-09T03:13:47.540Z,87.55
2024-05-09T03:14:19.542Z,87.78
2024-05-09T03:14:51.326Z,87.92
2024-05-09T03:15:23.087Z,87.85
2024-05-09T03:15:54.760Z,87.46
2024-05-09T03:16:26.702Z,87.57
2024-05-09T03:16:58.496Z,87.75
2024-05-09T03:17:30.668Z,87.65
2024-05-09T03:18:03.351Z,87.69
2024-05-09T03:18:35.259Z,87.08
2024-05-09T03:19:07.162Z,87.10
2024-05-09T03:19:38.936Z,87.20
2024-05-09T03:20:17.555Z,87.45
2024-05-09T03:20:55.330Z,87.44
2024-05-09T03:21:27.064Z,87.69
2024-05-09T03:21:58.973Z,87.70
2024-05-09T03:22:30.728Z,87.82
2024-05-09T03:23:02.679Z,87.72
2024-05-09T03:23:42.258Z,87.99
2024-05-09T03:24:14.034Z,87.73
2024-05-09T03:24:45.780Z,87.73
2024-05-09T03:25:17.527Z,87.39
2024-05-09T03:25:49.488Z,87.24
2024-05-09T03:26:21.278Z,87.68
2024-05-09T03:26:53.071Z,87.65
2024-05-09T03:27:24.900Z,87.81
2024-05-09T03:27:56.868Z,87.89
2024-05-09T03:28:28.578Z,87.68
2024-05-09T03:29:00.361Z,87.50
2024-05-09T03:29:32.300Z,87.71
2024-05-09T03:30:07.244Z,87.73
2024-05-09T03:30:42.341Z,87.67
2024-05-09T03:31:18.603Z,88.00
2024-05-09T03:31:50.432Z,88.18
2024-05-09T03:32:22.200Z,88.25
2024-05-09T03:32:54.571Z,88.13
2024-05-09T03:33:26.832Z,88.23
2024-05-09T03:33:58.807Z,88.17
2024-05-09T03:34:30.636Z,88.17
2024-05-09T03:35:02.431Z,87.92
2024-05-09T03:35:34.184Z,87.69
2024-05-09T03:36:09.101Z,87.45
2024-05-09T03:36:43.202Z,87.42
2024-05-09T03:37:14.738Z,87.75
2024-05-09T03:37:46.446Z,87.28
2024-05-09T03:38:18.440Z,87.56
2024-05-09T03:38:51.011Z,87.52
2024-05-09T03:39:22.726Z,87.67
2024-05-09T03:39:54.480Z,87.62
2024-05-09T03:40:29.047Z,87.63
2024-05-09T03:41:02.815Z,87.67
2024-05-09T03:41:35.455Z,87.65
2024-05-09T03:42:07.168Z,87.45
2024-05-09T03:42:41.654Z,87.52
2024-05-09T03:43:13.811Z,87.42
2024-05-09T03:43:45.560Z,87.56
2024-05-09T03:44:17.938Z,87.37
2024-05-09T03:44:49.705Z,87.42
2024-05-09T03:45:21.589Z,87.06
2024-05-09T03:45:53.351Z,87.01
2024-05-09T03:46:25.051Z,87.01
2024-05-09T03:46:56.710Z,87.45
2024-05-09T03:47:28.618Z,87.33
2024-05-09T03:48:00.650Z,87.42
2024-05-09T03:48:35.630Z,87.33
2024-05-09T03:49:08.058Z,87.26
2024-05-09T03:49:40.048Z,87.63
2024-05-09T03:50:18.351Z,87.49
2024-05-09T03:50:57.525Z,87.24
2024-05-09T03:51:29.183Z,87.56
2024-05-09T03:52:05.101Z,86.95
2024-05-09T03:52:36.855Z,87.08
2024-05-09T03:53:11.531Z,87.08
2024-05-09T03:53:43.547Z,87.12
2024-05-09T03:54:15.246Z,87.16
2024-05-09T03:54:47.517Z,87.31
2024-05-09T03:55:19.254Z,87.55
2024-05-09T03:55:50.938Z,87.45
2024-05-09T03:56:22.760Z,87.43
2024-05-09T03:56:54.604Z,87.39
2024-05-09T03:57:26.278Z,87.28
2024-05-09T03:57:58.108Z,86.97
2024-05-09T03:58:29.765Z,87.18
2024-05-09T03:59:01.688Z,87.31
2024-05-09T03:59:33.421Z,87.62
2024-05-09T04:00:11.962Z,87.24
2024-05-09T04:00:49.136Z,86.93
2024-05-09T04:01:20.939Z,87.41
2024-05-09T04:01:54.961Z,87.14
2024-05-09T04:02:26.762Z,87.19
2024-05-09T04:02:59.429Z,87.48
2024-05-09T04:03:31.646Z,87.24
2024-05-09T04:04:03.500Z,87.25
2024-05-09T04:04:35.261Z,87.28
2024-05-09T04:05:07.033Z,87.39
2024-05-09T04:05:44.445Z,87.47
2024-05-09T04:06:26.659Z,87.42
2024-05-09T04:06:59.509Z,87.87
2024-05-09T04:07:33.229Z,87.75
2024-05-09T04:08:05.540Z,87.82
2024-05-09T04:08:37.462Z,88.34
2024-05-09T04:09:09.499Z,88.17
2024-05-09T04:09:43.488Z,87.71
2024-05-09T04:10:23.993Z,88.01
2024-05-09T04:11:02.336Z,87.79
2024-05-09T04:11:34.335Z,87.68
2024-05-09T04:12:07.902Z,87.88
2024-05-09T04:12:39.613Z,87.53
2024-05-09T04:13:11.320Z,87.77
2024-05-09T04:13:43.364Z,87.43
2024-05-09T04:14:15.079Z,87.53
2024-05-09T04:14:46.795Z,87.20
2024-05-09T04:15:18.478Z,87.40
2024-05-09T04:15:50.214Z,87.16
2024-05-09T04:16:21.906Z,87.03
2024-05-09T04:16:53.616Z,87.27
2024-05-09T04:17:25.509Z,87.53
2024-05-09T04:17:57.402Z,86.84
2024-05-09T04:18:29.402Z,86.94
2024-05-09T04:19:01.166Z,86.73
2024-05-09T04:19:33.030Z,86.64
2024-05-09T04:20:08.228Z,86.55
2024-05-09T04:20:41.311Z,86.44
2024-05-09T04:21:13.319Z,86.02
2024-05-09T04:21:44.990Z,86.23
2024-05-09T04:22:17.216Z,86.49
2024-05-09T04:22:48.988Z,86.47
2024-05-09T04:23:21.111Z,86.60
2024-05-09T04:23:52.739Z,86.64
2024-05-09T04:24:24.410Z,86.73
2024-05-09T04:24:56.133Z,86.78
2024-05-09T04:25:27.865Z,86.99
2024-05-09T04:25:59.608Z,86.78
2024-05-09T04:26:31.433Z,86.64
2024-05-09T04:27:03.159Z,86.46
2024-05-09T04:27:34.917Z,86.41
2024-05-09T04:28:06.883Z,86.48
2024-05-09T04:28:38.561Z,86.52
2024-05-09T04:29:10.369Z,86.86
2024-05-09T04:29:42.094Z,86.79
2024-05-09T04:30:21.634Z,86.77
2024-05-09T04:31:02.091Z,87.31
2024-05-09T04:31:36.777Z,87.38
2024-05-09T04:32:08.777Z,87.25
2024-05-09T04:32:43.179Z,87.21
2024-05-09T04:33:15.592Z,86.84
2024-05-09T04:33:47.652Z,86.93
2024-05-09T04:34:19.637Z,86.88
2024-05-09T04:34:51.487Z,86.74
2024-05-09T04:35:23.338Z,86.92
2024-05-09T04:35:55.066Z,87.12
2024-05-09T04:36:27.594Z,87.01
2024-05-09T04:36:59.134Z,87.07
2024-05-09T04:37:30.777Z,87.29
2024-05-09T04:38:02.768Z,87.28
2024-05-09T04:38:34.798Z,86.92
2024-05-09T04:39:06.645Z,87.03
2024-05-09T04:39:38.385Z,86.97
2024-05-09T04:40:20.507Z,86.86
2024-05-09T04:40:56.118Z,86.79
2024-05-09T04:41:27.904Z,87.16
2024-05-09T04:41:59.690Z,86.79
2024-05-09T04:42:31.361Z,87.08
2024-05-09T04:43:03.908Z,86.96
2024-05-09T04:43:35.834Z,87.14
2024-05-09T04:44:07.587Z,87.20
2024-05-09T04:44:39.265Z,87.08
2024-05-09T04:45:11.085Z,87.24
2024-05-09T04:45:43.012Z,87.22
2024-05-09T04:46:14.872Z,87.17
2024-05-09T04:46:49.782Z,86.83
2024-05-09T04:47:21.775Z,87.12
2024-05-09T04:47:54.630Z,86.98
2024-05-09T04:48:26.939Z,86.94
2024-05-09T04:48:58.804Z,86.77
2024-05-09T04:49:30.586Z,86.94
2024-05-09T04:50:02.614Z,86.83
2024-05-09T04:50:38.169Z,86.54
2024-05-09T04:51:11.243Z,86.88
2024-05-09T04:51:42.940Z,86.81
2024-05-09T04:52:14.590Z,87.09
2024-05-09T04:52:46.364Z,87.07
2024-05-09T04:53:18.278Z,86.97
2024-05-09T04:53:50.069Z,86.57
2024-05-09T04:54:33.468Z,86.74
2024-05-09T04:55:07.860Z,86.71
2024-05-09T04:55:40.554Z,86.65
2024-05-09T04:56:12.531Z,86.81
2024-05-09T04:56:44.328Z,87.04
2024-05-09T04:57:16.146Z,86.65
2024-05-09T04:57:47.825Z,86.60
2024-05-09T04:58:19.790Z,86.56
2024-05-09T04:58:51.724Z,86.57
2024-05-09T04:59:23.711Z,86.75
2024-05-09T04:59:56.078Z,86.61
2024-05-09T05:00:35.514Z,86.71
2024-05-09T05:01:09.353Z,87.02
2024-05-09T05:01:42.119Z,87.16
2024-05-09T05:02:14.038Z,87.12
2024-05-09T05:02:45.890Z,87.13
2024-05-09T05:03:18.029Z,86.99
2024-05-09T05:03:50.052Z,86.62
2024-05-09T05:04:21.871Z,86.66
2024-05-09T05:04:53.766Z,86.67
2024-05-09T05:05:25.556Z,86.92
2024-05-09T05:05:57.413Z,86.86
2024-05-09T05:06:30.231Z,86.52
2024-05-09T05:07:02.994Z,86.79
2024-05-09T05:07:34.981Z,86.72
2024-05-09T05:08:11.956Z,86.87
2024-05-09T05:08:43.751Z,87.05
2024-05-09T05:09:15.513Z,86.84
2024-05-09T05:09:47.190Z,86.77
2024-05-09T05:10:25.327Z,86.51
2024-05-09T05:11:01.181Z,86.71
2024-05-09T05:11:33.207Z,86.89
2024-05-09T05:12:25.241Z,86.61
2024-05-09T05:13:15.743Z,86.64
2024-05-09T05:13:47.531Z,86.58
2024-05-09T05:14:19.347Z,86.94
2024-05-09T05:14:51.264Z,87.01
2024-05-09T05:15:23.019Z,87.20
2024-05-09T05:15:57.406Z,87.21
2024-05-09T05:16:29.862Z,87.41
2024-05-09T05:17:01.696Z,86.97
2024-05-09T05:17:33.643Z,87.45
2024-05-09T05:18:05.831Z,87.02
2024-05-09T05:18:37.718Z,86.97
2024-05-09T05:19:12.023Z,87.20
2024-05-09T05:19:45.207Z,87.24
2024-05-09T05:20:24.498Z,86.74
2024-05-09T05:21:03.027Z,86.45
2024-05-09T05:21:34.853Z,86.60
2024-05-09T05:22:08.082Z,87.10
2024-05-09T05:22:43.106Z,87.00
2024-05-09T05:23:16.783Z,86.74
2024-05-09T05:23:48.648Z,86.76
2024-05-09T05:24:20.457Z,86.68
2024-05-09T05:24:52.130Z,86.64
2024-05-09T05:25:23.776Z,86.78
2024-05-09T05:25:55.887Z,86.89
2024-05-09T05:26:27.769Z,86.70
2024-05-09T05:26:59.505Z,86.83
2024-05-09T05:27:31.254Z,87.07
2024-05-09T05:28:02.989Z,87.16
2024-05-09T05:28:34.683Z,87.73
2024-05-09T05:29:06.406Z,87.32
2024-05-09T05:29:38.382Z,87.61
2024-05-09T05:30:17.546Z,87.60
2024-05-09T05:30:52.953Z,87.36
2024-05-09T05:31:24.653Z,87.85
2024-05-09T05:31:56.487Z,87.70
2024-05-09T05:32:28.393Z,87.34
2024-05-09T05:33:00.487Z,87.62
2024-05-09T05:33:32.418Z,87.41
2024-05-09T05:34:04.359Z,87.12
2024-05-09T05:34:36.205Z,87.36
2024-05-09T05:35:07.952Z,87.50
2024-05-09T05:35:41.195Z,87.36
2024-05-09T05:36:12.907Z,87.74
2024-05-09T05:36:44.584Z,87.65
2024-05-09T05:37:16.234Z,87.55
2024-05-09T05:37:47.972Z,87.61
2024-05-09T05:38:23.726Z,87.51
2024-05-09T05:38:58.182Z,87.81
2024-05-09T05:39:29.976Z,87.88
2024-05-09T05:40:01.798Z,87.77
2024-05-09T05:40:37.456Z,88.16
2024-05-09T05:41:10.366Z,87.94
2024-05-09T05:41:42.172Z,87.94
2024-05-09T05:42:13.821Z,87.87
2024-05-09T05:42:45.484Z,87.88
2024-05-09T05:43:19.209Z,87.69
2024-05-09T05:43:54.023Z,87.83
2024-05-09T05:44:25.858Z,87.58
2024-05-09T05:44:57.562Z,87.64
2024-05-09T05:45:29.242Z,87.55
2024-05-09T05:46:00.947Z,87.64
2024-05-09T05:46:32.595Z,87.47
2024-05-09T05:47:04.571Z,87.64
2024-05-09T05:47:37.734Z,87.35
2024-05-09T05:48:10.028Z,87.33
2024-05-09T05:48:41.866Z,87.53
2024-05-09T05:49:13.779Z,87.34
2024-05-09T05:49:45.655Z,87.40
2024-05-09T05:50:24.726Z,87.48
2024-05-09T05:51:05.690Z,87.45
2024-05-09T05:51:37.427Z,87.55
2024-05-09T05:52:12.324Z,87.24
2024-05-09T05:52:44.177Z,87.23
2024-05-09T05:53:15.995Z,87.13
2024-05-09T05:53:47.752Z,87.16
2024-05-09T05:54:19.450Z,86.67
2024-05-09T05:54:51.993Z,86.83
2024-05-09T05:55:23.555Z,86.70
2024-05-09T05:55:55.285Z,86.62
2024-05-09T05:56:27.606Z,86.74
2024-05-09T05:56:59.641Z,86.60
2024-05-09T05:57:31.352Z,86.49
2024-05-09T05:58:03.211Z,86.47
2024-05-09T05:58:34.885Z,86.77
2024-05-09T05:59:06.677Z,86.80
2024-05-09T05:59:38.486Z,86.11
2024-05-09T06:00:15.155Z,86.15
2024-05-09T06:00:53.030Z,86.05
2024-05-09T06:01:24.912Z,86.12
2024-05-09T06:01:57.751Z,86.31
2024-05-09T06:02:29.450Z,85.83
2024-05-09T06:03:01.260Z,85.89
2024-05-09T06:03:33.184Z,85.96
2024-05-09T06:04:05.097Z,85.80
2024-05-09T06:04:36.874Z,85.63
2024-05-09T06:05:09.610Z,85.45
2024-05-09T06:05:45.863Z,85.70
2024-05-09T06:06:17.671Z,85.70
2024-05-09T06:06:49.597Z,85.87
2024-05-09T06:07:21.385Z,85.89
2024-05-09T06:07:53.138Z,85.66
2024-05-09T06:08:27.051Z,85.54
2024-05-09T06:09:00.502Z,85.66
2024-05-09T06:09:32.145Z,85.51
2024-05-09T06:10:07.254Z,85.60
2024-05-09T06:10:43.142Z,85.43
2024-05-09T06:11:14.906Z,85.23
2024-05-09T06:11:46.715Z,85.12
2024-05-09T06:12:18.644Z,84.98
2024-05-09T06:12:50.359Z,85.21
2024-05-09T06:13:22.100Z,85.07
2024-05-09T06:13:53.807Z,85.28
2024-05-09T06:14:25.650Z,85.21
2024-05-09T06:14:57.279Z,85.15
2024-05-09T06:15:28.929Z,85.40
2024-05-09T06:16:00.820Z,85.59
2024-05-09T06:16:33.597Z,85.72
2024-05-09T06:17:05.287Z,86.20
2024-05-09T06:17:37.145Z,86.18
2024-05-09T06:18:10.743Z,86.24
2024-05-09T06:18:43.696Z,86.20
2024-05-09T06:19:15.547Z,86.22
2024-05-09T06:19:47.561Z,86.37
2024-05-09T06:20:24.047Z,86.56
2024-05-09T06:21:03.735Z,86.53
2024-05-09T06:21:35.412Z,86.56
2024-05-09T06:22:09.427Z,86.54
2024-05-09T06:22:41.072Z,86.13
2024-05-09T06:23:13.741Z,85.54
2024-05-09T06:23:46.707Z,85.67
2024-05-09T06:24:18.497Z,85.29
2024-05-09T06:24:50.168Z,85.45
2024-05-09T06:25:21.864Z,85.23
2024-05-09T06:25:53.566Z,85.07
2024-05-09T06:26:25.314Z,84.63
2024-05-09T06:26:57.141Z,84.73
2024-05-09T06:27:28.835Z,84.31
2024-05-09T06:28:01.721Z,84.61
2024-05-09T06:28:35.762Z,83.98
2024-05-09T06:29:07.511Z,84.36
2024-05-09T06:29:39.689Z,84.20
2024-05-09T06:30:24.826Z,84.40
2024-05-09T06:31:01.824Z,85.00
2024-05-09T06:31:33.693Z,85.00
2024-05-09T06:32:05.964Z,85.28
2024-05-09T06:32:37.939Z,85.24
2024-05-09T06:33:12.895Z,85.78
2024-05-09T06:33:46.636Z,86.13
2024-05-09T06:34:18.967Z,85.62
2024-05-09T06:34:50.784Z,85.55
2024-05-09T06:35:22.561Z,85.15
2024-05-09T06:35:59.194Z,84.52
2024-05-09T06:36:30.873Z,84.64
2024-05-09T06:37:02.790Z,84.83
2024-05-09T06:37:34.466Z,84.83
2024-05-09T06:38:08.757Z,85.08
2024-05-09T06:38:40.828Z,85.22
2024-05-09T06:39:12.568Z,85.20
2024-05-09T06:39:46.076Z,85.85
2024-05-09T06:40:25.042Z,85.99
2024-05-09T06:40:57.678Z,85.90
2024-05-09T06:41:29.450Z,85.79
2024-05-09T06:42:01.240Z,85.95
2024-05-09T06:42:32.877Z,85.97
2024-05-09T06:43:04.730Z,85.27
2024-05-09T06:43:37.621Z,84.97
2024-05-09T06:44:09.663Z,85.25
2024-05-09T06:44:41.435Z,85.42
2024-05-09T06:45:13.792Z,84.60
2024-05-09T06:45:46.898Z,84.49
2024-05-09T06:46:18.640Z,84.77
2024-05-09T06:46:50.391Z,84.58
2024-05-09T06:47:22.293Z,84.36
2024-05-09T06:47:54.211Z,84.35
2024-05-09T06:48:26.217Z,84.25
2024-05-09T06:48:59.164Z,84.12
2024-05-09T06:49:31.734Z,83.90
2024-05-09T06:50:04.890Z,83.88
2024-05-09T06:50:39.744Z,84.09
2024-05-09T06:51:12.110Z,83.99
2024-05-09T06:51:43.927Z,84.54
2024-05-09T06:52:15.568Z,83.86
2024-05-09T06:52:47.536Z,83.95
2024-05-09T06:53:25.604Z,84.19
2024-05-09T06:53:57.282Z,83.45
2024-05-09T06:54:28.937Z,84.01
2024-05-09T06:55:00.705Z,84.07
2024-05-09T06:55:32.453Z,84.00
2024-05-09T06:56:04.400Z,83.99
2024-05-09T06:56:36.310Z,84.01
2024-05-09T06:57:08.054Z,84.31
2024-05-09T06:57:42.501Z,83.53
2024-05-09T06:58:14.735Z,84.01
2024-05-09T06:58:46.442Z,84.12
2024-05-09T06:59:18.249Z,83.60
2024-05-09T06:59:49.924Z,82.80
2024-05-09T07:00:27.735Z,82.18
2024-05-09T07:01:07.156Z,81.76
2024-05-09T07:01:38.858Z,82.14
2024-05-09T07:02:10.836Z,81.98
2024-05-09T07:02:42.646Z,82.12
2024-05-09T07:03:17.813Z,82.56
2024-05-09T07:03:50.793Z,82.21
2024-05-09T07:04:22.717Z,82.31
2024-05-09T07:04:54.687Z,82.43
2024-05-09T07:05:26.731Z,82.20
2024-05-09T07:05:58.765Z,82.81
2024-05-09T07:06:30.450Z,82.60
2024-05-09T07:07:02.169Z,82.43
2024-05-09T07:07:33.824Z,82.56